createdAt,value
2022-12-04T00:02:33.620Z,101959.00
2022-12-04T00:05:35.154Z,101964.19
2022-12-04T00:08:37.360Z,101961.59
2022-12-04T00:11:39.367Z,101961.59
2022-12-04T00:15:16.550Z,101959.00
2022-12-04T00:18:02.624Z,101949.41
2022-12-04T00:21:08.508Z,101951.13
2022-12-04T00:24:10.076Z,101940.69
2022-12-04T00:27:11.582Z,101948.53
2022-12-04T00:30:13.548Z,101944.16
2022-12-04T00:33:15.054Z,101948.50
2022-12-04T00:36:19.150Z,101951.16
2022-12-04T00:39:20.677Z,101940.69
2022-12-04T00:42:22.240Z,101949.41
2022-12-04T00:45:23.818Z,101941.56
2022-12-04T00:48:25.617Z,101939.81
2022-12-04T00:51:27.390Z,101939.81
2022-12-04T00:54:28.939Z,101936.31
2022-12-04T00:57:30.611Z,101940.69
2022-12-04T01:00:32.198Z,101936.31
2022-12-04T01:03:34.183Z,101933.72
2022-12-04T01:06:35.859Z,101933.72
2022-12-04T01:09:37.437Z,101942.41
2022-12-04T01:12:38.986Z,101938.09
2022-12-04T01:15:43.635Z,101938.09
2022-12-04T01:18:45.876Z,101938.94
2022-12-04T01:21:47.397Z,101932.84
2022-12-04T01:24:48.956Z,101933.72
2022-12-04T01:27:50.495Z,101935.47
2022-12-04T01:30:58.082Z,101938.09
2022-12-04T01:33:59.688Z,101932.00
2022-12-04T01:37:01.314Z,101933.72
2022-12-04T01:40:03.783Z,101934.59
2022-12-04T01:43:09.446Z,101924.16
2022-12-04T01:46:11.975Z,101925.88
2022-12-04T01:49:18.420Z,101921.53
2022-12-04T01:52:25.386Z,101922.38
2022-12-04T01:55:27.066Z,101922.41
2022-12-04T01:58:33.160Z,101916.28
2022-12-04T02:01:42.638Z,101920.66
2022-12-04T02:04:44.867Z,101920.66
2022-12-04T02:07:49.350Z,101919.81
2022-12-04T02:10:59.072Z,101925.03
2022-12-04T02:14:18.908Z,101924.13
2022-12-04T02:17:58.978Z,101925.03
2022-12-04T02:21:13.605Z,101932.88
2022-12-04T02:24:46.836Z,101918.94
2022-12-04T02:28:02.543Z,101927.63
2022-12-04T02:31:08.962Z,101919.78
2022-12-04T02:34:25.705Z,101917.19
2022-12-04T02:37:33.024Z,101910.19
2022-12-04T02:40:45.626Z,101913.72
2022-12-04T02:43:52.741Z,101921.53
2022-12-04T02:47:00.844Z,101921.53
2022-12-04T02:50:07.475Z,101920.69
2022-12-04T02:53:13.582Z,101918.06
2022-12-04T02:56:20.348Z,101920.66
2022-12-04T02:59:41.114Z,101925.88
2022-12-04T03:02:53.503Z,101914.59
2022-12-04T03:06:10.410Z,101925.88
2022-12-04T03:09:18.052Z,101917.19
2022-12-04T03:12:50.492Z,101915.44
2022-12-04T03:16:10.684Z,101917.19
2022-12-04T03:19:48.214Z,101913.69
2022-12-04T03:22:55.338Z,101914.59
2022-12-04T03:26:02.617Z,101918.91
2022-12-04T03:29:13.667Z,101914.56
2022-12-04T03:32:15.160Z,101923.28
2022-12-04T03:35:21.633Z,101917.19
2022-12-04T03:38:59.253Z,101918.06
2022-12-04T03:42:12.888Z,101918.94
2022-12-04T03:45:29.251Z,101907.59
2022-12-04T03:49:15.764Z,101917.16
2022-12-04T03:52:24.810Z,101913.72
2022-12-04T03:55:32.860Z,101910.22
2022-12-04T03:58:39.374Z,101917.19
2022-12-04T04:01:46.560Z,101908.44
2022-12-04T04:04:52.267Z,101908.47
2022-12-04T04:08:20.314Z,101902.34
2022-12-04T04:11:51.234Z,101907.59
2022-12-04T04:15:25.259Z,101902.38
2022-12-04T04:18:48.786Z,101906.72
2022-12-04T04:22:12.414Z,101899.75
2022-12-04T04:25:18.383Z,101904.09
2022-12-04T04:28:34.760Z,101904.97
2022-12-04T04:31:36.300Z,101906.72
2022-12-04T04:34:40.644Z,101905.84
2022-12-04T04:37:45.109Z,101902.34
2022-12-04T04:40:56.898Z,101905.84
2022-12-04T04:44:11.057Z,101901.50
2022-12-04T04:47:20.239Z,101901.47
2022-12-04T04:50:22.568Z,101907.56
2022-12-04T04:53:29.603Z,101900.59
2022-12-04T04:56:31.499Z,101898.00
2022-12-04T04:59:34.634Z,101892.75
2022-12-04T05:02:36.697Z,101908.44
2022-12-04T05:05:38.298Z,101905.81
2022-12-04T05:08:40.033Z,101912.81
2022-12-04T05:11:41.575Z,101909.31
2022-12-04T05:14:43.117Z,101910.16
2022-12-04T05:17:44.642Z,101911.91
2022-12-04T05:20:46.118Z,101912.78
2022-12-04T05:23:47.646Z,101917.13
2022-12-04T05:26:49.152Z,101907.53
2022-12-04T05:29:54.392Z,101923.22
2022-12-04T05:32:56.242Z,101926.72
2022-12-04T05:36:01.768Z,101919.72
2022-12-04T05:39:03.540Z,101922.34
2022-12-04T05:42:05.172Z,101918.84
2022-12-04T05:45:07.197Z,101911.91
2022-12-04T05:48:08.737Z,101914.50
2022-12-04T05:51:11.170Z,101915.38
2022-12-04T05:54:12.862Z,101910.16
2022-12-04T05:57:14.467Z,101916.22
2022-12-04T06:00:16.526Z,101929.28
2022-12-04T06:03:18.308Z,101923.19
2022-12-04T06:06:22.820Z,101922.31
2022-12-04T06:09:24.460Z,101924.06
2022-12-04T06:12:26.010Z,101919.69
2022-12-04T06:15:27.661Z,101922.28
2022-12-04T06:18:29.164Z,101919.69
2022-12-04T06:21:32.959Z,101925.78
2022-12-04T06:24:34.543Z,101917.06
2022-12-04T06:27:36.159Z,101917.06
2022-12-04T06:30:37.720Z,101920.53
2022-12-04T06:33:39.728Z,101922.28
2022-12-04T06:36:41.366Z,101924.88
2022-12-04T06:39:43.047Z,101927.50
2022-12-04T06:42:44.571Z,101930.13
2022-12-04T06:45:46.154Z,101931.00
2022-12-04T06:48:48.311Z,101930.09
2022-12-04T06:51:49.868Z,101924.88
2022-12-04T06:54:51.430Z,101929.22
2022-12-04T06:57:52.987Z,101934.47
2022-12-04T07:00:55.488Z,101935.34
2022-12-04T07:03:58.503Z,101939.69
2022-12-04T07:07:00.037Z,101932.69
2022-12-04T07:10:02.396Z,101934.41
2022-12-04T07:13:05.300Z,101935.28
2022-12-04T07:16:08.997Z,101937.88
2022-12-04T07:19:12.919Z,101943.16
2022-12-04T07:22:14.677Z,101942.28
2022-12-04T07:25:16.383Z,101946.63
2022-12-04T07:28:18.026Z,101944.88
2022-12-04T07:31:22.239Z,101948.41
2022-12-04T07:34:24.100Z,101934.44
2022-12-04T07:37:25.686Z,101937.94
2022-12-04T07:40:27.245Z,101947.50
2022-12-04T07:43:30.031Z,101955.34
2022-12-04T07:46:31.645Z,101945.78
2022-12-04T07:49:33.267Z,101948.38
2022-12-04T07:52:38.869Z,101949.28
2022-12-04T07:55:40.536Z,101956.25
2022-12-04T07:58:42.912Z,101957.97
2022-12-04T08:01:44.596Z,101951.88
2022-12-04T08:04:46.635Z,101953.59
2022-12-04T08:07:48.526Z,101955.38
2022-12-04T08:10:50.052Z,101950.09
2022-12-04T08:14:05.351Z,101947.50
2022-12-04T08:17:06.914Z,101951.88
2022-12-04T08:20:08.999Z,101957.09
2022-12-04T08:23:10.659Z,101949.25
2022-12-04T08:26:13.217Z,101951.88
2022-12-04T08:29:14.738Z,101959.69
2022-12-04T08:32:16.296Z,101957.09
2022-12-04T08:35:17.994Z,101963.19
2022-12-04T08:38:19.508Z,101958.81
2022-12-04T08:41:24.067Z,101961.44
2022-12-04T08:44:25.926Z,101964.06
2022-12-04T08:47:27.571Z,101961.44
2022-12-04T08:50:29.135Z,101964.94
2022-12-04T08:53:31.438Z,101962.28
2022-12-04T08:56:34.703Z,101960.53
2022-12-04T08:59:36.294Z,101967.53
2022-12-04T09:02:38.166Z,101969.25
2022-12-04T09:05:39.921Z,101964.91
2022-12-04T09:08:42.347Z,101967.50
2022-12-04T09:11:45.897Z,101970.13
2022-12-04T09:14:47.470Z,101968.38
2022-12-04T09:17:49.047Z,101966.63
2022-12-04T09:21:01.302Z,101965.72
2022-12-04T09:24:02.928Z,101965.72
2022-12-04T09:27:05.324Z,101948.25
2022-12-04T09:30:13.063Z,101961.34
2022-12-04T09:33:14.664Z,101962.22
2022-12-04T09:36:16.793Z,101970.94
2022-12-04T09:39:18.351Z,101963.06
2022-12-04T09:42:22.521Z,101961.28
2022-12-04T09:45:26.319Z,101960.41
2022-12-04T09:48:34.964Z,101951.63
2022-12-04T09:51:38.712Z,101952.16
2022-12-04T09:54:43.233Z,101942.47
2022-12-04T09:57:48.585Z,101946.78
2022-12-04T10:00:52.117Z,101934.59
2022-12-04T10:03:55.184Z,101932.91
2022-12-04T10:07:15.934Z,101924.22
2022-12-04T10:10:37.908Z,101921.63
2022-12-04T10:14:00.893Z,101924.28
2022-12-04T10:17:46.900Z,101927.81
2022-12-04T10:21:21.711Z,101925.19
2022-12-04T10:24:35.316Z,101921.72
2022-12-04T10:27:36.850Z,101916.50
2022-12-04T10:30:42.938Z,101916.47
2022-12-04T10:33:49.203Z,101919.09
2022-12-04T10:36:54.650Z,101922.59
2022-12-04T10:40:03.136Z,101916.47
2022-12-04T10:43:14.788Z,101917.31
2022-12-04T10:46:23.287Z,101921.69
2022-12-04T10:49:28.667Z,101915.53
2022-12-04T10:52:30.221Z,101920.75
2022-12-04T10:55:34.891Z,101917.25
2022-12-04T10:58:36.771Z,101904.16
2022-12-04T11:01:38.469Z,101907.63
2022-12-04T11:04:42.025Z,101910.25
2022-12-04T11:07:47.514Z,101905.84
2022-12-04T11:10:58.901Z,101900.53
2022-12-04T11:14:21.515Z,101900.53
2022-12-04T11:17:23.305Z,101903.16
2022-12-04T11:20:27.774Z,101892.63
2022-12-04T11:23:33.964Z,101897.84
2022-12-04T11:26:41.933Z,101883.84
2022-12-04T11:29:45.849Z,101893.44
2022-12-04T11:32:48.155Z,101892.53
2022-12-04T11:35:55.497Z,101880.28
2022-12-04T11:39:13.855Z,101877.63
2022-12-04T11:42:22.599Z,101870.66
2022-12-04T11:45:24.223Z,101881.09
2022-12-04T11:48:27.259Z,101879.34
2022-12-04T11:52:10.056Z,101875.84
2022-12-04T11:55:28.312Z,101876.75
2022-12-04T11:58:53.504Z,101876.72
2022-12-04T12:02:19.836Z,101867.16
2022-12-04T12:05:42.782Z,101872.38
2022-12-04T12:08:59.469Z,101860.19
2022-12-04T12:12:28.982Z,101868.94
2022-12-04T12:16:12.044Z,101860.16
2022-12-04T12:19:58.465Z,101865.41
2022-12-04T12:23:27.141Z,101868.00
2022-12-04T12:26:55.574Z,101873.97
2022-12-04T12:30:46.551Z,101867.72
2022-12-04T12:34:02.373Z,101865.13
2022-12-04T12:37:27.651Z,101871.22
2022-12-04T12:40:38.651Z,101873.84
2022-12-04T12:43:43.805Z,101868.63
2022-12-04T12:47:01.291Z,101866.84
2022-12-04T12:50:34.055Z,101868.56
2022-12-04T12:53:41.960Z,101869.47
2022-12-04T12:56:50.223Z,101868.56
2022-12-04T12:59:57.166Z,101862.44
2022-12-04T13:03:07.061Z,101852.81
2022-12-04T13:06:18.197Z,101852.81
2022-12-04T13:09:27.657Z,101851.06
2022-12-04T13:12:31.852Z,101845.78
2022-12-04T13:15:44.708Z,101841.38
2022-12-04T13:18:51.938Z,101840.50
2022-12-04T13:22:14.762Z,101829.94
2022-12-04T13:25:19.581Z,101825.53
2022-12-04T13:28:36.472Z,101830.75
2022-12-04T13:32:01.447Z,101821.97
2022-12-04T13:35:06.072Z,101812.31
2022-12-04T13:38:13.327Z,101812.28
2022-12-04T13:41:24.002Z,101812.22
2022-12-04T13:44:27.423Z,101813.97
2022-12-04T13:47:34.668Z,101826.19
2022-12-04T13:50:39.404Z,101820.91
2022-12-04T13:53:43.565Z,101821.78
2022-12-04T13:56:51.850Z,101829.66
2022-12-04T14:00:31.128Z,101830.50
2022-12-04T14:03:37.384Z,101824.41
2022-12-04T14:06:42.496Z,101824.38
2022-12-04T14:09:53.285Z,101817.38
2022-12-04T14:13:06.057Z,101817.38
2022-12-04T14:16:17.914Z,101811.22
2022-12-04T14:19:35.662Z,101801.59
2022-12-04T14:22:37.519Z,101808.56
2022-12-04T14:25:40.533Z,101816.44
2022-12-04T14:28:42.751Z,101807.66
2022-12-04T14:31:44.507Z,101807.63
2022-12-04T14:34:48.022Z,101808.50
2022-12-04T14:37:56.450Z,101805.88
2022-12-04T14:40:58.557Z,101819.88
2022-12-04T14:44:00.875Z,101820.69
2022-12-04T14:47:33.747Z,101802.34
2022-12-04T14:50:45.973Z,101804.06
2022-12-04T14:54:18.187Z,101798.84
2022-12-04T14:57:28.347Z,101802.34
2022-12-04T15:00:29.955Z,101799.75
2022-12-04T15:03:35.933Z,101799.72
2022-12-04T15:06:39.507Z,101794.44
2022-12-04T15:10:09.632Z,101792.66
2022-12-04T15:13:11.578Z,101796.75
2022-12-04T15:16:17.407Z,101792.31
2022-12-04T15:19:21.270Z,101795.81
2022-12-04T15:22:26.323Z,101792.31
2022-12-04T15:25:36.363Z,101788.84
2022-12-04T15:28:44.928Z,101790.59
2022-12-04T15:31:53.442Z,101793.25
2022-12-04T15:35:05.770Z,101792.38
2022-12-04T15:38:13.047Z,101796.75
2022-12-04T15:41:34.378Z,101795.88
2022-12-04T15:44:36.701Z,101795.00
2022-12-04T15:47:49.940Z,101802.81
2022-12-04T15:51:03.153Z,101809.78
2022-12-04T15:54:05.225Z,101800.16
2022-12-04T15:57:34.086Z,101805.38
2022-12-04T16:00:38.531Z,101804.41
2022-12-04T16:03:42.900Z,101807.81
2022-12-04T16:06:49.860Z,101814.72
2022-12-04T16:09:56.796Z,101814.63
2022-12-04T16:13:05.114Z,101811.06
2022-12-04T16:16:15.646Z,101807.50
2022-12-04T16:19:26.251Z,101808.34
2022-12-04T16:22:30.055Z,101803.97
2022-12-04T16:25:31.725Z,101808.38
2022-12-04T16:28:33.226Z,101804.84
2022-12-04T16:31:36.372Z,101809.19
2022-12-04T16:34:38.650Z,101809.19
2022-12-04T16:37:40.195Z,101803.88
2022-12-04T16:40:41.986Z,101804.75
2022-12-04T16:43:43.767Z,101816.13
2022-12-04T16:46:45.402Z,101815.22
2022-12-04T16:49:51.921Z,101805.59
2022-12-04T16:52:54.441Z,101807.34
2022-12-04T16:55:56.023Z,101810.75
2022-12-04T16:58:57.563Z,101815.09
2022-12-04T17:02:00.175Z,101820.34
2022-12-04T17:05:01.877Z,101823.84
2022-12-04T17:08:03.615Z,101819.44
2022-12-04T17:11:05.387Z,101825.56
2022-12-04T17:14:07.471Z,101830.78
2022-12-04T17:17:09.042Z,101830.75
2022-12-04T17:20:13.105Z,101831.59
2022-12-04T17:23:14.794Z,101820.16
2022-12-04T17:26:16.574Z,101821.88
2022-12-04T17:29:18.199Z,101819.22
2022-12-04T17:32:19.750Z,101811.31
2022-12-04T17:35:21.439Z,101818.28
2022-12-04T17:38:22.952Z,101810.41
2022-12-04T17:41:25.173Z,101812.13
2022-12-04T17:44:26.772Z,101813.88
2022-12-04T17:47:28.399Z,101821.72
2022-12-04T17:50:29.895Z,101819.06
2022-12-04T17:53:31.472Z,101823.47
2022-12-04T17:56:33.180Z,101817.31
2022-12-04T17:59:34.743Z,101820.88
2022-12-04T18:02:36.648Z,101819.06
2022-12-04T18:05:38.272Z,101817.31
2022-12-04T18:08:41.247Z,101820.78
2022-12-04T18:11:48.158Z,101824.25
2022-12-04T18:14:49.756Z,101815.53
2022-12-04T18:17:51.262Z,101819.84
2022-12-04T18:21:03.780Z,101821.59
2022-12-04T18:24:06.082Z,101824.19
2022-12-04T18:27:08.043Z,101819.81
2022-12-04T18:30:10.079Z,101832.03
2022-12-04T18:33:16.060Z,101831.13
2022-12-04T18:36:22.744Z,101836.38
2022-12-04T18:39:25.803Z,101840.75
2022-12-04T18:42:27.348Z,101838.09
2022-12-04T18:45:28.960Z,101842.47
2022-12-04T18:48:31.291Z,101839.78
2022-12-04T18:51:36.396Z,101844.13
2022-12-04T18:54:37.935Z,101837.97
2022-12-04T18:57:40.294Z,101841.50
2022-12-04T19:00:42.118Z,101841.44
2022-12-04T19:03:44.576Z,101844.06
2022-12-04T19:06:49.126Z,101839.66
2022-12-04T19:13:12.148Z,101855.38
2022-12-04T19:16:15.884Z,101852.75
2022-12-04T19:19:18.106Z,101846.66
2022-12-04T19:22:19.677Z,101850.16
2022-12-04T19:25:21.217Z,101851.91
2022-12-04T19:28:23.609Z,101858.88
2022-12-04T19:31:31.146Z,101857.19
2022-12-04T19:34:32.886Z,101858.94
2022-12-04T19:37:38.262Z,101859.81
2022-12-04T19:40:43.203Z,101853.66
2022-12-04T19:43:50.708Z,101860.63
2022-12-04T19:46:52.297Z,101855.38
2022-12-04T19:49:53.848Z,101852.69
2022-12-04T19:52:55.392Z,101843.88
2022-12-04T19:55:57.275Z,101847.31
2022-12-04T19:59:03.054Z,101840.25
2022-12-04T20:02:04.656Z,101844.56
2022-12-04T20:05:06.392Z,101835.75
2022-12-04T20:11:11.825Z,101842.72
2022-12-04T20:14:13.766Z,101839.16
2022-12-04T20:17:15.346Z,101834.75
2022-12-04T20:20:17.018Z,101842.66
2022-12-04T20:23:18.544Z,101837.31
2022-12-04T20:26:25.748Z,101837.28
2022-12-04T20:29:27.287Z,101835.50
2022-12-04T20:32:28.800Z,101831.94
2022-12-04T20:35:30.387Z,101826.63
2022-12-04T20:38:31.919Z,101827.50
2022-12-04T20:41:34.223Z,101820.44
2022-12-04T20:44:35.848Z,101820.41
2022-12-04T20:47:37.711Z,101828.22
2022-12-04T20:50:41.314Z,101824.66
2022-12-04T20:53:43.827Z,101827.28
2022-12-04T20:56:46.047Z,101824.59
2022-12-04T20:59:47.571Z,101821.09
2022-12-04T21:02:49.440Z,101815.75
2022-12-04T21:05:51.044Z,101810.44
2022-12-04T21:08:53.229Z,101814.78
2022-12-04T21:11:55.934Z,101808.63
2022-12-04T21:15:15.836Z,101800.72
2022-12-04T21:18:17.384Z,101800.72
2022-12-04T21:21:18.926Z,101792.84
2022-12-04T21:24:22.508Z,101792.84
2022-12-04T21:27:24.348Z,101799.72
2022-12-04T21:30:25.956Z,101795.25
2022-12-04T21:33:29.190Z,101790.00
2022-12-04T21:36:30.951Z,101787.34
2022-12-04T21:39:32.738Z,101786.44
2022-12-04T21:42:35.437Z,101782.91
2022-12-04T21:45:36.944Z,101783.78
2022-12-04T21:48:38.849Z,101783.78
2022-12-04T21:51:56.722Z,101783.78
2022-12-04T21:54:59.145Z,101785.53
2022-12-04T21:58:00.639Z,101779.44
2022-12-04T22:01:09.237Z,101782.91
2022-12-04T22:04:11.004Z,101776.78
2022-12-04T22:07:12.645Z,101775.84
2022-12-04T22:10:14.239Z,101775.00
2022-12-04T22:13:16.064Z,101787.28
2022-12-04T22:16:18.945Z,101785.53
2022-12-04T22:19:20.660Z,101778.53
2022-12-04T22:22:22.163Z,101784.66
2022-12-04T22:25:23.719Z,101787.28
2022-12-04T22:28:25.343Z,101781.97
2022-12-04T22:31:29.266Z,101788.13
2022-12-04T22:34:30.826Z,101789.94
2022-12-04T22:37:32.404Z,101780.22
2022-12-04T22:40:33.922Z,101781.09
2022-12-04T22:43:40.640Z,101777.53
2022-12-04T22:46:42.629Z,101772.28
2022-12-04T22:49:44.389Z,101774.03
2022-12-04T22:52:45.940Z,101768.75
2022-12-04T22:55:47.476Z,101765.25
2022-12-04T22:58:49.668Z,101771.41
2022-12-04T23:01:51.175Z,101765.28
2022-12-04T23:04:52.761Z,101765.28
2022-12-04T23:07:55.367Z,101767.94
2022-12-04T23:10:56.907Z,101773.22
2022-12-04T23:14:05.645Z,101771.50
2022-12-04T23:17:07.243Z,101762.31
2022-12-04T23:20:09.111Z,101761.44
2022-12-04T23:23:10.735Z,101760.50
2022-12-04T23:26:18.092Z,101759.66
2022-12-04T23:29:44.892Z,101758.81
2022-12-04T23:32:41.107Z,101759.69
2022-12-04T23:35:42.623Z,101756.19
2022-12-04T23:38:45.138Z,101756.22
2022-12-04T23:41:46.623Z,101758.00
2022-12-04T23:44:48.232Z,101747.44
2022-12-04T23:47:49.833Z,101752.75
2022-12-04T23:50:52.528Z,101758.91
2022-12-04T23:53:54.710Z,101758.06
2022-12-04T23:56:56.228Z,101762.47
2022-12-04T23:59:57.999Z,101758.97
